Time;durP1;ratioP1;P1;durP2;ratioP2;P2;SDS_P1;SDS_P2;PMS_P1;PMS_P2;Temp;Humidity;BMP_temperature;BMP_pressure;BME280_temperature;BME280_humidity;BME280_pressure;Samples;Min_cycle;Max_cycle;Signal;HPM_P1;HPM_P2
2021/03/02 00:01:28;;;;;;;5.00;2.40;;;;;;;12.59;53.32;102025.78;5032119;28;20128;-65
2021/03/02 00:03:56;;;;;;;6.93;2.60;;;;;;;12.61;53.31;102034.66;5031828;28;20505;-65
2021/03/02 00:06:23;;;;;;;7.72;2.75;;;;;;;12.63;53.36;102031.19;5031963;28;20069;-65
2021/03/02 00:08:52;;;;;;;7.28;2.28;;;;;;;12.68;52.89;102016.31;5031948;28;20113;-65
2021/03/02 00:11:20;;;;;;;9.32;2.72;;;;;;;12.68;52.85;102021.63;5032461;28;20131;-65
2021/03/02 00:13:47;;;;;;;9.82;3.80;;;;;;;12.68;52.89;102026.91;5031226;28;20484;-64
2021/03/02 00:16:20;;;;;;;8.88;3.25;;;;;;;12.73;52.92;102033.22;5032292;28;20056;-65
2021/03/02 00:18:52;;;;;;;10.65;4.20;;;;;;;12.75;53.08;102012.97;5031135;28;20112;-65
2021/03/02 00:21:22;;;;;;;10.82;4.50;;;;;;;-143.60;100.00;57988.34;5015112;28;20057;-65
2021/03/02 00:23:54;;;;;;;14.80;3.88;;;;;;;12.86;52.88;102025.63;5031600;28;20029;-65
2021/03/02 00:26:24;;;;;;;9.55;3.22;;;;;;;12.77;53.13;102026.28;5014753;28;20136;-65
2021/03/02 00:28:52;;;;;;;7.70;2.78;;;;;;;12.80;53.07;102021.03;5020245;28;20033;-65
2021/03/02 00:31:20;;;;;;;8.00;2.40;;;;;;;12.83;53.07;102026.44;5012231;28;20510;-65
2021/03/02 00:33:47;;;;;;;5.90;2.40;;;;;;;12.87;52.97;102028.31;5025135;28;20049;-65
2021/03/02 00:36:14;;;;;;;6.40;2.20;;;;;;;12.90;52.89;102031.06;5031466;28;20437;-65
2021/03/02 00:38:41;;;;;;;5.60;3.03;;;;;;;12.90;52.87;102016.91;5031936;28;20168;-65
2021/03/02 00:41:09;;;;;;;6.22;2.28;;;;;;;12.91;53.02;102018.69;5031135;28;20041;-65
2021/03/02 00:43:36;;;;;;;8.27;2.55;;;;;;;12.84;53.26;102008.78;5031276;28;20482;-65
2021/03/02 00:46:04;;;;;;;11.20;3.10;;;;;;;12.88;53.31;102000.94;5031409;28;20037;-65
2021/03/02 00:48:30;;;;;;;7.35;2.83;;;;;;;12.94;53.21;102006.41;5031400;28;20037;-65
2021/03/02 00:50:57;;;;;;;7.82;2.63;;;;;;;12.98;53.12;102008.31;5030374;28;20129;-65
2021/03/02 00:53:24;;;;;;;8.05;2.78;;;;;;;13.03;53.17;101995.16;5030770;28;20038;-65
2021/03/02 00:55:52;;;;;;;6.97;2.95;;;;;;;13.06;53.29;101998.75;5030414;28;20030;-65
2021/03/02 00:58:20;;;;;;;6.55;2.42;;;;;;;13.11;53.35;101988.28;5030870;28;20040;-65
2021/03/02 01:00:47;;;;;;;6.00;2.72;;;;;;;13.12;53.28;101987.44;5022785;28;20132;-65
2021/03/02 01:03:14;;;;;;;7.38;2.17;;;;;;;13.16;53.14;101994.63;5027478;28;20618;-65
2021/03/02 01:05:42;;;;;;;7.13;1.83;;;;;;;13.19;53.11;101984.13;5031611;28;20043;-65
2021/03/02 01:08:09;;;;;;;7.90;1.92;;;;;;;13.21;53.32;101984.13;5011948;28;20061;-65
2021/03/02 01:10:36;;;;;;;5.88;1.88;;;;;;;13.21;53.50;101987.69;5031058;28;20041;-65
2021/03/02 01:13:03;;;;;;;7.10;2.28;;;;;;;13.21;53.69;101982.38;5030626;28;20128;-66
2021/03/02 01:15:32;;;;;;;8.77;2.20;;;;;;;13.26;53.58;101980.72;5030399;28;20037;-65
2021/03/02 01:17:59;;;;;;;5.10;2.28;;;;;;;13.27;53.68;101974.56;5030841;28;20048;-65
2021/03/02 01:20:26;;;;;;;7.28;2.20;;;;;;;13.25;53.92;101967.47;5031087;28;20537;-65
2021/03/02 01:22:53;;;;;;;10.15;2.67;;;;;;;13.23;54.21;101964.75;5030435;28;20080;-66
2021/03/02 01:25:21;;;;;;;5.90;2.83;;;;;;;13.21;54.40;101973.53;5030847;28;20045;-66
2021/03/02 01:27:48;;;;;;;7.03;2.25;;;;;;;13.23;54.52;101970.06;5029937;28;20041;-65
2021/03/02 01:30:17;;;;;;;6.65;2.33;;;;;;;13.30;54.32;101966.69;5030303;28;20437;-65
2021/03/02 01:32:45;;;;;;;6.22;2.38;;;;;;;13.34;54.34;101967.66;5029967;28;20037;-65
2021/03/02 01:35:13;;;;;;;5.93;2.10;;;;;;;13.35;54.24;101965.06;5030224;28;20076;-65
2021/03/02 01:37:40;;;;;;;6.85;2.13;;;;;;;13.32;54.38;101975.59;5029897;28;20172;-66
2021/03/02 01:40:10;;;;;;;5.00;2.40;;;;;;;13.34;54.63;101963.25;5029330;28;20452;-65
2021/03/02 01:42:37;;;;;;;9.00;2.80;;;;;;;13.32;54.77;101970.31;5030658;28;20053;-65
2021/03/02 01:45:06;;;;;;;8.13;2.85;;;;;;;13.37;54.73;101973.06;5029970;28;20517;-65
2021/03/02 01:47:33;;;;;;;12.65;2.80;;;;;;;13.37;54.70;101970.41;5020895;28;20125;-65
2021/03/02 01:50:01;;;;;;;10.65;3.35;;;;;;;13.39;54.77;101966.91;5029356;28;20037;-66
2021/03/02 01:52:29;;;;;;;6.30;2.47;;;;;;;13.31;54.91;101967.59;5030212;28;20041;-65
2021/03/02 01:54:56;;;;;;;11.25;3.53;;;;;;;13.33;55.09;101963.22;5029341;28;20030;-64
2021/03/02 01:57:24;;;;;;;7.60;2.95;;;;;;;13.33;55.12;101966.75;5030178;28;20041;-65
2021/03/02 01:59:51;;;;;;;12.23;2.95;;;;;;;13.36;55.03;101969.50;5029161;28;20048;-65
2021/03/02 02:02:24;;;;;;;10.65;2.67;;;;;;;13.40;54.86;101962.50;5030395;28;20048;-66
2021/03/02 02:04:56;;;;;;;8.27;2.95;;;;;;;13.39;54.67;101966.91;5029945;28;20042;-65
2021/03/02 02:07:32;;;;;;;10.88;3.40;;;;;;;13.41;54.48;101970.50;5030124;28;20059;-65
2021/03/02 02:10:05;;;;;;;9.88;3.97;;;;;;;13.42;54.22;101966.97;5010863;28;20499;-65
2021/03/02 02:12:37;;;;;;;9.38;3.03;;;;;;;13.43;54.03;101944.91;5029495;28;20526;-65
2021/03/02 02:15:09;;;;;;;11.65;4.05;;;;;;;13.38;53.71;101969.53;5012627;28;20128;-65
2021/03/02 02:17:40;;;;;;;12.85;3.38;;;;;;;13.33;53.72;101965.84;5029899;28;20437;-65
2021/03/02 02:20:09;;;;;;;8.60;3.17;;;;;;;13.25;53.47;101971.00;5010002;28;20038;-65
2021/03/02 02:23:12;;;;;;;8.60;3.60;;;;;;;13.22;53.33;101964.72;5025318;28;20037;-65
2021/03/02 02:25:49;;;;;;;9.15;3.78;;;;;;;13.16;53.32;101957.50;5010064;28;20038;-65
2021/03/02 02:28:20;;;;;;;10.55;3.65;;;;;;;13.10;53.32;101978.53;5023590;28;20177;-65
2021/03/02 02:30:54;;;;;;;8.27;3.33;;;;;;;13.06;53.43;101984.66;5029394;28;20057;-65
2021/03/02 02:33:24;;;;;;;10.57;4.00;;;;;;;12.98;53.13;101971.19;5029468;28;20049;-64
2021/03/02 02:35:52;;;;;;;11.32;3.65;;;;;;;12.95;53.00;101980.81;5028888;28;20029;-66
2021/03/02 02:38:22;;;;;;;9.32;2.90;;;;;;;12.90;52.85;101979.78;5029601;28;20552;-65
2021/03/02 02:40:50;;;;;;;9.85;3.47;;;;;;;12.84;52.76;101985.84;5029150;28;20061;-66
2021/03/02 02:43:19;;;;;;;8.55;3.80;;;;;;;12.82;52.31;101990.19;5029934;28;20049;-64
2021/03/02 02:45:47;;;;;;;8.75;3.25;;;;;;;12.83;51.89;101989.34;5029474;28;20068;-65
2021/03/02 02:48:15;;;;;;;9.95;3.55;;;;;;;12.80;51.97;101997.19;5029172;28;20159;-65
2021/03/02 02:50:45;;;;;;;13.00;3.83;;;;;;;12.76;52.14;101985.63;5028478;28;20660;-65
2021/03/02 02:53:12;;;;;;;9.55;3.90;;;;;;;12.74;52.25;101999.69;5028846;28;20080;-66
2021/03/02 02:55:44;;;;;;;9.05;3.45;;;;;;;12.68;52.48;102003.06;5029197;28;20041;-65
2021/03/02 02:58:14;;;;;;;10.77;3.85;;;;;;;12.60;52.86;102007.25;5029193;28;20436;-65
2021/03/02 03:00:43;;;;;;;10.85;3.22;;;;;;;12.63;52.96;102006.47;5009973;28;20042;-65
2021/03/02 03:03:16;;;;;;;10.25;4.55;;;;;;;12.61;52.95;102003.75;5010804;28;20104;-65
2021/03/02 03:05:48;;;;;;;5.10;2.80;;;;;;;12.60;52.61;101999.31;5028926;28;20119;-65
2021/03/02 03:08:18;;;;;;;8.88;4.45;;;;;;;12.57;52.57;102012.50;5029074;28;20030;-65
2021/03/02 03:10:48;;;;;;;13.50;3.72;;;;;;;12.60;52.49;102022.28;5017495;28;20133;-65
2021/03/02 03:13:19;;;;;;;12.18;3.92;;;;;;;12.59;52.78;102012.53;5016689;28;20042;-65
2021/03/02 03:15:52;;;;;;;14.18;5.63;;;;;;;12.57;53.42;102017.78;5011840;28;20038;-65
2021/03/02 03:18:23;;;;;;;11.32;3.72;;;;;;;12.59;53.60;102020.50;5029171;28;20057;-65
2021/03/02 03:20:51;;;;;;;20.05;5.30;;;;;;;12.57;53.77;102023.09;5029050;28;20049;-65
2021/03/02 03:23:19;;;;;;;9.82;4.05;;;;;;;12.60;53.40;102036.41;5029027;28;20079;-65
2021/03/02 03:25:46;;;;;;;12.55;4.20;;;;;;;12.57;53.39;102033.69;5028549;28;20572;-65
2021/03/02 03:28:16;;;;;;;12.57;4.10;;;;;;;12.62;53.83;102040.00;5029200;28;20049;-65
2021/03/02 03:30:45;;;;;;;9.65;4.20;;;;;;;12.61;54.15;102037.28;5030448;28;20033;-66
2021/03/02 03:33:15;;;;;;;10.68;4.82;;;;;;;12.61;54.23;102043.50;5032650;28;20049;-65
2021/03/02 03:35:43;;;;;;;9.32;3.72;;;;;;;12.58;54.49;102054.03;5032840;28;20112;-65
2021/03/02 03:38:10;;;;;;;11.88;3.60;;;;;;;12.56;54.60;102065.41;5032293;28;20038;-65
2021/03/02 03:40:38;;;;;;;10.18;3.95;;;;;;;12.61;54.99;102070.00;5032931;28;20107;-65
2021/03/02 03:43:05;;;;;;;10.68;3.58;;;;;;;12.63;55.37;102065.63;5032320;28;20037;-65
2021/03/02 03:45:33;;;;;;;12.32;4.53;;;;;;;12.61;55.48;102064.69;5032931;28;20560;-65
2021/03/02 03:48:00;;;;;;;10.95;3.88;;;;;;;12.57;55.62;102060.19;5031593;28;20060;-65
2021/03/02 03:50:28;;;;;;;10.25;3.88;;;;;;;12.53;55.94;102074.19;5032160;28;20041;-65
2021/03/02 03:53:00;;;;;;;12.60;4.25;;;;;;;12.48;56.03;102070.50;5031853;28;20045;-65
2021/03/02 03:55:31;;;;;;;11.18;4.00;;;;;;;12.44;56.02;102065.97;5032623;28;20080;-65
2021/03/02 03:57:58;;;;;;;10.25;4.00;;;;;;;12.42;55.77;102074.72;5031790;28;20460;-65
2021/03/02 04:00:27;;;;;;;16.75;4.75;;;;;;;12.35;55.29;102074.53;5013174;28;20561;-65
2021/03/02 04:02:54;;;;;;;14.10;4.28;;;;;;;12.32;55.10;102063.88;5020679;28;20033;-65
2021/03/02 04:05:21;;;;;;;14.80;4.25;;;;;;;12.31;54.81;102063.81;5032240;28;20037;-65
2021/03/02 04:07:51;;;;;;;10.77;3.92;;;;;;;12.33;54.81;102073.63;5031670;28;20037;-66
2021/03/02 04:10:18;;;;;;;12.35;4.22;;;;;;;12.32;54.89;102060.31;5032421;28;20517;-65
2021/03/02 04:12:47;;;;;;;10.80;4.25;;;;;;;12.33;55.14;102060.38;5031688;28;20038;-64
2021/03/02 04:15:17;;;;;;;9.75;4.25;;;;;;;12.34;55.23;102066.53;5031678;28;20495;-65
2021/03/02 04:17:50;;;;;;;12.73;4.43;;;;;;;12.30;55.14;102068.22;5031155;28;20521;-66
2021/03/02 04:20:18;;;;;;;8.10;4.05;;;;;;;12.28;54.99;102066.38;5031988;28;20087;-65
2021/03/02 04:22:46;;;;;;;9.85;4.30;;;;;;;12.30;54.68;102067.31;5031788;28;20041;-65
2021/03/02 04:25:15;;;;;;;15.75;4.63;;;;;;;12.35;54.67;102071.88;5031957;28;20053;-65
2021/03/02 04:27:43;;;;;;;9.85;4.15;;;;;;;12.39;54.56;102064.94;5031137;28;20128;-65
2021/03/02 04:30:11;;;;;;;10.95;4.60;;;;;;;12.43;54.72;102060.63;5031856;28;20065;-65
2021/03/02 04:32:38;;;;;;;10.65;3.72;;;;;;;12.45;54.82;102053.63;5031755;28;20099;-65
2021/03/02 04:35:07;;;;;;;10.40;5.18;;;;;;;12.49;54.71;102068.75;5031325;28;20121;-65
2021/03/02 04:37:34;;;;;;;12.25;3.80;;;;;;;12.47;54.71;102063.41;5031737;28;20045;-64
2021/03/02 04:40:01;;;;;;;10.43;4.60;;;;;;;12.50;54.65;102058.19;5031457;28;20052;-65
2021/03/02 04:42:30;;;;;;;9.30;4.68;;;;;;;12.58;54.72;102069.03;5031203;28;20033;-65
2021/03/02 04:44:57;;;;;;;13.90;4.75;;;;;;;12.52;55.04;102063.56;5013393;28;20037;-65
2021/03/02 04:47:24;;;;;;;11.07;4.50;;;;;;;12.51;55.32;102060.00;5031823;28;20509;-65
2021/03/02 04:49:52;;;;;;;23.80;6.57;;;;;;;12.53;55.44;102055.66;5030858;28;20064;-66
2021/03/02 04:52:19;;;;;;;15.25;5.15;;;;;;;12.55;55.43;102061.88;5013998;28;20517;-65
2021/03/02 04:54:46;;;;;;;11.13;4.53;;;;;;;12.56;55.13;102068.06;5031167;28;20397;-65
2021/03/02 04:57:14;;;;;;;10.70;4.13;;;;;;;12.55;54.65;102055.66;5031334;28;20048;-65
2021/03/02 04:59:42;;;;;;;10.60;4.70;;;;;;;12.59;54.34;102061.13;5031079;28;20037;-65
2021/03/02 05:02:09;;;;;;;13.13;4.78;;;;;;;12.62;54.13;102068.25;5030533;28;20042;-65
2021/03/02 05:04:37;;;;;;;12.25;5.50;;;;;;;12.66;53.85;102055.16;5031393;28;20124;-65
2021/03/02 05:07:05;;;;;;;10.57;5.90;;;;;;;12.68;54.00;102058.72;5029945;28;20542;-65
2021/03/02 05:09:32;;;;;;;10.95;3.97;;;;;;;12.70;54.07;102054.38;5030549;28;20041;-65
2021/03/02 05:11:59;;;;;;;9.68;4.93;;;;;;;12.78;53.95;102065.19;5030606;28;20132;-65
2021/03/02 05:14:26;;;;;;;8.82;4.38;;;;;;;12.81;54.00;102067.91;5030963;28;20048;-64
2021/03/02 05:16:54;;;;;;;9.40;4.63;;;;;;;12.86;54.22;102070.69;5030602;28;20056;-66
2021/03/02 05:19:21;;;;;;;8.55;4.25;;;;;;;12.90;54.00;102070.81;5031114;28;20041;-65
2021/03/02 05:21:48;;;;;;;13.98;4.88;;;;;;;12.93;54.13;102088.56;5030819;28;20405;-65
2021/03/02 05:24:15;;;;;;;15.40;6.10;;;;;;;12.97;54.18;102082.47;5030474;28;20052;-65
2021/03/02 05:26:43;;;;;;;17.65;5.53;;;;;;;13.05;53.91;102081.84;5030821;28;20030;-65
2021/03/02 05:29:10;;;;;;;12.50;5.80;;;;;;;13.09;53.15;102075.75;5030388;28;20053;-66
2021/03/02 05:31:37;;;;;;;9.25;4.78;;;;;;;13.11;51.87;102081.09;5029037;28;20386;-64
2021/03/02 05:34:05;;;;;;;10.90;4.35;;;;;;;13.12;51.08;102075.88;5022761;28;20405;-65
2021/03/02 05:36:33;;;;;;;12.43;4.65;;;;;;;13.14;51.68;102068.84;5030882;28;20537;-65
2021/03/02 05:39:00;;;;;;;12.73;4.80;;;;;;;13.28;52.70;102084.19;5028601;28;20108;-65
2021/03/02 05:41:28;;;;;;;10.57;4.40;;;;;;;13.40;53.32;102090.72;5030808;28;20037;-65
2021/03/02 05:43:55;;;;;;;13.15;5.88;;;;;;;13.45;54.16;102082.91;5029114;28;20042;-65
2021/03/02 05:46:23;;;;;;;10.25;5.63;;;;;;;13.56;55.07;102089.34;5028943;28;20132;-65
2021/03/02 05:48:50;;;;;;;17.52;8.38;;;;;;;13.51;55.69;102096.31;5029457;28;20041;-66
2021/03/02 05:51:19;;;;;;;15.00;6.63;;;;;;;13.41;56.03;102091.63;5030257;28;20041;-65
2021/03/02 05:53:47;;;;;;;14.18;4.95;;;;;;;13.25;54.58;102103.59;5028795;28;20084;-65
2021/03/02 05:56:14;;;;;;;11.13;5.80;;;;;;;13.19;53.13;102111.41;5030407;28;20120;-65
2021/03/02 05:58:41;;;;;;;12.43;5.00;;;;;;;13.19;52.68;102118.47;5012004;28;20124;-65
2021/03/02 06:01:08;;;;;;;13.45;4.32;;;;;;;13.44;52.33;102124.44;5029628;28;20434;-65
2021/03/02 06:03:37;;;;;;;13.77;5.70;;;;;;;13.72;51.88;102120.69;5012120;28;20080;-65
2021/03/02 06:06:05;;;;;;;6.95;3.55;;;;;;;13.79;50.72;102116.44;5029773;28;20135;-65
2021/03/02 06:08:34;;;;;;;14.70;4.55;;;;;;;13.88;50.52;102116.66;5029827;28;20034;-65
2021/03/02 06:11:29;;;;;;;10.75;4.82;;;;;;;13.76;50.29;102109.31;5029489;28;20115;-66
2021/03/02 06:13:57;;;;;;;10.73;4.28;;;;;;;13.57;50.11;102113.28;5029093;28;20529;-65
2021/03/02 06:16:24;;;;;;;12.20;3.70;;;;;;;13.52;50.45;102114.03;5029848;28;20045;-65
2021/03/02 06:18:54;;;;;;;13.35;6.70;;;;;;;13.65;50.12;102128.50;5028925;28;20498;-66
2021/03/02 06:21:22;;;;;;;15.95;8.27;;;;;;;13.61;50.16;102122.19;5029799;28;20152;-65
2021/03/02 06:23:52;;;;;;;14.40;8.80;;;;;;;13.61;50.66;102124.84;5028350;28;20048;-66
2021/03/02 06:26:25;;;;;;;15.48;7.60;;;;;;;13.68;51.51;102125.91;5021191;28;20116;-65
2021/03/02 06:28:54;;;;;;;9.75;5.00;;;;;;;13.78;52.07;102123.53;5022949;28;20030;-66
2021/03/02 06:31:38;;;;;;;11.43;3.83;;;;;;;14.15;50.79;102138.56;5022626;28;20491;-64
2021/03/02 06:34:10;;;;;;;12.30;4.30;;;;;;;14.14;50.14;102130.56;5023295;28;20045;-65
2021/03/02 06:36:39;;;;;;;6.72;3.30;;;;;;;13.95;50.31;102131.88;5030040;28;20033;-65
2021/03/02 06:39:29;;;;;;;8.82;3.97;;;;;;;14.05;48.94;102140.94;5028831;28;20033;-65
2021/03/02 06:42:16;;;;;;;12.00;5.47;;;;;;;14.05;49.52;102146.25;5029455;28;20041;-65
2021/03/02 06:44:45;;;;;;;11.73;4.30;;;;;;;14.45;50.03;102149.00;5029837;28;20034;-65
2021/03/02 06:47:14;;;;;;;10.73;5.82;;;;;;;14.82;50.17;102141.84;5026739;28;20176;-65
2021/03/02 06:49:44;;;;;;;14.88;7.35;;;;;;;15.20;50.40;102145.22;5032618;28;20059;-65
2021/03/02 06:52:17;;;;;;;12.65;5.78;;;;;;;15.14;50.43;102138.03;5027161;28;20053;-66
2021/03/02 06:54:47;;;;;;;10.52;5.20;;;;;;;14.70;50.43;102137.16;5027311;28;20133;-66
2021/03/02 06:57:21;;;;;;;13.77;7.30;;;;;;;14.52;51.11;102140.31;5021909;28;20049;-65
2021/03/02 06:59:56;;;;;;;10.60;4.70;;;;;;;14.63;51.43;102140.56;5028111;28;20045;-66
2021/03/02 07:02:36;;;;;;;12.50;6.35;;;;;;;14.73;51.24;102129.25;5026181;28;20052;-65
2021/03/02 07:05:07;;;;;;;13.00;5.22;;;;;;;14.84;50.89;102133.00;5023118;28;20084;-65
2021/03/02 07:07:35;;;;;;;10.60;3.50;;;;;;;14.71;51.21;102121.22;5027092;28;20136;-65
2021/03/02 07:10:05;;;;;;;11.32;4.18;;;;;;;14.65;52.03;102131.72;5027637;28;20387;-65
2021/03/02 07:12:34;;;;;;;11.65;4.50;;;;;;;14.54;52.66;102133.28;5027867;28;20033;-65
2021/03/02 07:15:03;;;;;;;13.60;5.60;;;;;;;14.49;53.44;102145.56;5026966;28;20034;-65
2021/03/02 07:17:30;;;;;;;10.57;4.15;;;;;;;14.78;52.74;102132.88;5032268;28;20128;-66
2021/03/02 07:19:58;;;;;;;9.30;5.05;;;;;;;15.20;51.82;102123.94;5028652;28;20065;-65
2021/03/02 07:22:27;;;;;;;14.68;5.50;;;;;;;15.55;50.23;102122.88;5025006;28;20050;-65
2021/03/02 07:25:00;;;;;;;12.15;3.80;;;;;;;15.48;49.81;102121.81;5028353;28;20133;-65
2021/03/02 07:27:31;;;;;;;7.93;2.78;;;;;;;15.60;49.95;102113.19;5026235;28;20029;-66
2021/03/02 07:29:59;;;;;;;7.82;3.28;;;;;;;15.91;49.05;102131.44;5028442;28;20083;-65
2021/03/02 07:32:29;;;;;;;8.52;2.97;;;;;;;16.17;47.53;102117.59;5013061;28;20117;-66
2021/03/02 07:34:57;;;;;;;8.52;2.83;;;;;;;16.38;46.56;102115.25;5031607;28;20052;-66
2021/03/02 07:37:25;;;;;;;11.50;3.55;;;;;;;16.40;45.91;102129.50;5032379;28;20079;-65
2021/03/02 07:40:03;;;;;;;9.18;4.00;;;;;;;16.15;46.25;102120.25;5030821;28;20037;-66
2021/03/02 07:42:32;;;;;;;8.00;2.60;;;;;;;16.01;46.29;102107.63;5028493;28;20071;-66
2021/03/02 07:45:06;;;;;;;11.63;3.28;;;;;;;15.77;46.05;102124.09;5031778;28;20117;-66
2021/03/02 07:47:44;;;;;;;7.32;3.00;;;;;;;16.19;45.53;102106.13;5030680;28;20127;-65
2021/03/02 07:50:22;;;;;;;8.98;2.83;;;;;;;16.26;45.03;102109.75;5032079;28;20061;-66
2021/03/02 07:53:11;;;;;;;9.05;3.13;;;;;;;16.05;45.36;102118.34;5030878;28;20048;-66
2021/03/02 07:55:38;;;;;;;6.00;2.50;;;;;;;16.18;45.14;102106.97;5029924;28;20041;-66
2021/03/02 07:58:18;;;;;;;9.75;3.22;;;;;;;15.83;45.78;102116.19;5032001;28;20052;-66
2021/03/02 08:00:46;;;;;;;8.13;2.45;;;;;;;15.79;46.17;102114.38;5031515;28;20563;-65
2021/03/02 08:03:23;;;;;;;6.85;2.60;;;;;;;15.91;45.63;102114.56;5030869;28;20122;-65
2021/03/02 08:05:51;;;;;;;4.28;1.92;;;;;;;16.34;44.49;102118.75;5031308;28;20509;-66
2021/03/02 08:08:37;;;;;;;12.02;3.80;;;;;;;16.05;44.75;102126.31;5029301;28;20113;-65
2021/03/02 08:11:29;;;;;;;8.57;3.15;;;;;;;16.00;45.22;102117.38;5029564;28;20065;-65
2021/03/02 08:13:59;;;;;;;12.32;3.38;;;;;;;15.87;44.78;102124.28;5031887;28;20125;-66
2021/03/02 08:16:54;;;;;;;10.23;3.25;;;;;;;15.82;44.95;102120.63;5030110;28;20042;-66
2021/03/02 08:19:46;;;;;;;15.98;6.25;;;;;;;16.18;44.96;102133.63;5024148;28;20057;-66
2021/03/02 08:22:48;;;;;;;14.80;6.35;;;;;;;16.32;44.84;102137.38;5030964;28;20041;-66
2021/03/02 08:25:35;;;;;;;13.20;4.32;;;;;;;16.20;44.90;102134.56;5031190;28;20045;-65
2021/03/02 08:28:04;;;;;;;7.30;2.40;;;;;;;15.98;44.92;102135.09;5030906;28;20034;-66
2021/03/02 08:30:37;;;;;;;9.23;2.58;;;;;;;16.29;44.63;102139.09;5031438;28;20062;-66
2021/03/02 08:33:08;;;;;;;11.63;4.25;;;;;;;16.92;43.79;102143.53;5030040;28;20033;-66
2021/03/02 08:35:37;;;;;;;7.28;3.25;;;;;;;16.92;44.17;102133.75;5030565;28;20048;-65
2021/03/02 08:38:05;;;;;;;8.93;2.47;;;;;;;16.78;44.36;102131.78;5031573;28;21876;-66
2021/03/02 08:40:45;;;;;;;11.45;3.67;;;;;;;16.47;43.99;102128.72;5031147;28;20129;-66
2021/03/02 08:43:16;;;;;;;6.22;1.88;;;;;;;16.45;43.45;102143.78;5031882;28;20041;-66
2021/03/02 08:45:46;;;;;;;7.03;2.08;;;;;;;16.28;43.04;102147.97;5031390;28;20049;-65
2021/03/02 08:48:22;;;;;;;7.80;2.30;;;;;;;16.13;43.05;102150.41;5030743;28;20120;-66
2021/03/02 08:50:52;;;;;;;5.57;2.00;;;;;;;16.41;42.83;102143.72;5029200;28;20603;-66
2021/03/02 08:53:37;;;;;;;8.07;2.47;;;;;;;16.18;43.25;102146.94;5030670;28;20057;-67
2021/03/02 08:56:06;;;;;;;8.48;2.42;;;;;;;15.94;43.57;102168.78;5029079;28;20033;-66
2021/03/02 08:58:36;;;;;;;11.48;2.90;;;;;;;16.37;43.70;102156.09;5028641;28;20056;-66
2021/03/02 09:01:10;;;;;;;5.00;1.75;;;;;;;16.64;42.90;102150.28;5027206;28;20124;-66
2021/03/02 09:03:38;;;;;;;7.57;2.55;;;;;;;16.99;42.18;102134.72;5024270;28;20495;-67
2021/03/02 09:06:11;;;;;;;7.18;1.77;;;;;;;17.44;41.67;102143.22;5024936;28;20637;-66
2021/03/02 09:08:56;;;;;;;7.50;1.58;;;;;;;17.66;41.16;102140.75;5025247;28;20702;-66
2021/03/02 09:11:28;;;;;;;5.30;1.58;;;;;;;18.04;40.91;102146.41;5027399;28;20128;-66
2021/03/02 09:13:57;;;;;;;6.25;2.00;;;;;;;18.02;40.21;102134.81;5029142;28;20085;-66
2021/03/02 09:16:35;;;;;;;8.07;2.10;;;;;;;17.59;40.26;102154.91;5029341;28;20489;-66
2021/03/02 09:19:14;;;;;;;6.65;1.70;;;;;;;17.90;40.53;102147.22;5025948;28;20040;-65
2021/03/02 09:21:44;;;;;;;7.95;1.65;;;;;;;18.14;40.23;102150.94;5029437;28;20042;-66
2021/03/02 09:24:16;;;;;;;7.50;1.75;;;;;;;18.32;40.64;102159.06;5028997;28;20042;-66
2021/03/02 09:26:50;;;;;;;9.88;2.10;;;;;;;17.89;40.65;102156.09;5027593;28;20055;-65
2021/03/02 09:29:18;;;;;;;6.85;1.88;;;;;;;17.75;40.66;102146.19;5022930;28;20456;-66
2021/03/02 09:31:47;;;;;;;3.58;1.55;;;;;;;18.18;40.60;102134.91;5028538;28;20049;-67
2021/03/02 09:34:14;;;;;;;4.40;1.85;;;;;;;18.50;39.57;102139.56;5028911;28;20128;-65
2021/03/02 09:36:42;;;;;;;7.38;1.83;;;;;;;18.68;39.16;102145.03;5026422;28;20054;-66
2021/03/02 09:39:28;;;;;;;5.60;1.80;;;;;;;18.87;39.19;102144.22;5028793;28;20043;-66
2021/03/02 09:41:56;;;;;;;7.68;1.92;;;;;;;18.85;39.74;102137.06;5010588;28;20410;-66
2021/03/02 09:44:26;;;;;;;9.07;1.95;;;;;;;18.98;39.77;102137.13;5029785;28;20037;-66
2021/03/02 09:46:57;;;;;;;7.13;1.52;;;;;;;18.69;39.10;102145.06;5029029;28;20049;-66
2021/03/02 09:49:35;;;;;;;8.30;2.17;;;;;;;18.70;39.51;102138.81;5027202;28;20065;-65
2021/03/02 09:52:03;;;;;;;6.72;1.30;;;;;;;18.83;37.87;102145.13;5027645;28;20037;-66
2021/03/02 09:54:30;;;;;;;2.88;1.20;;;;;;;19.07;37.50;102137.16;5029324;28;20161;-66
2021/03/02 09:56:58;;;;;;;9.98;1.88;;;;;;;19.00;37.57;102130.00;5029346;28;20113;-65
2021/03/02 09:59:26;;;;;;;5.38;1.55;;;;;;;18.52;37.82;102133.31;5024577;28;20095;-66
2021/03/02 10:01:55;;;;;;;9.07;1.88;;;;;;;18.01;39.02;102138.38;5024253;28;20601;-66
2021/03/02 10:04:23;;;;;;;7.32;2.13;;;;;;;17.91;39.45;102127.63;5028963;28;20069;-66
2021/03/02 10:06:50;;;;;;;8.05;1.80;;;;;;;17.93;38.06;102141.88;5027303;28;20041;-66
2021/03/02 10:09:22;;;;;;;5.50;2.60;;;;;;;18.00;38.35;102133.91;5028383;28;20120;-65
2021/03/02 10:12:09;;;;;;;3.97;1.40;;;;;;;18.34;38.23;102141.25;5026762;28;20042;-66
2021/03/02 10:14:38;;;;;;;5.68;1.50;;;;;;;18.62;38.17;102128.97;5026630;28;20037;-65
2021/03/02 10:17:07;;;;;;;7.72;1.27;;;;;;;19.15;37.98;102128.25;5027332;28;20145;-66
2021/03/02 10:19:35;;;;;;;5.05;1.08;;;;;;;18.76;37.84;102132.59;5028648;28;20128;-66
2021/03/02 10:22:04;;;;;;;4.75;0.90;;;;;;;18.24;37.36;102136.75;5027281;28;20120;-66
2021/03/02 10:24:36;;;;;;;3.72;1.67;;;;;;;18.35;37.42;102128.78;5026008;28;20187;-66
2021/03/02 10:27:12;;;;;;;4.50;0.95;;;;;;;19.04;36.80;102115.72;5023502;28;20113;-66
2021/03/02 10:29:40;;;;;;;7.18;2.35;;;;;;;19.11;36.43;102133.59;5027822;28;20045;-67
2021/03/02 10:32:09;;;;;;;6.88;0.95;;;;;;;19.25;36.74;102117.56;5024489;28;20037;-66
2021/03/02 10:34:37;;;;;;;2.92;1.00;;;;;;;19.38;36.53;102118.47;5020112;28;20041;-67
2021/03/02 10:37:06;;;;;;;13.35;3.78;;;;;;;18.96;37.43;102122.84;5026132;28;20052;-66
2021/03/02 10:39:34;;;;;;;10.48;2.28;;;;;;;18.67;37.81;102113.81;5027609;28;20398;-66
2021/03/02 10:42:03;;;;;;;9.77;2.08;;;;;;;18.50;37.96;102102.13;5027796;28;20041;-66
2021/03/02 10:44:30;;;;;;;6.15;1.27;;;;;;;18.38;37.83;102102.06;5028399;28;20064;-66
2021/03/02 10:46:57;;;;;;;4.55;1.42;;;;;;;18.04;37.85;102119.69;5022682;28;20040;-67
2021/03/02 10:49:26;;;;;;;9.38;2.35;;;;;;;18.06;38.28;102118.78;5019925;28;20048;-66
2021/03/02 10:51:53;;;;;;;5.05;1.45;;;;;;;17.89;38.33;102109.78;5019789;28;20038;-66
2021/03/02 10:54:21;;;;;;;11.02;2.40;;;;;;;17.96;38.71;102111.63;5020514;28;20663;-66
2021/03/02 10:56:48;;;;;;;5.32;1.67;;;;;;;18.21;38.51;102104.63;5018859;28;20045;-66
2021/03/02 10:59:15;;;;;;;5.35;1.42;;;;;;;17.95;38.24;102106.25;5020138;28;20515;-66
2021/03/02 11:01:42;;;;;;;7.65;3.00;;;;;;;17.70;38.64;102107.84;5023489;28;20037;-67
2021/03/02 11:04:09;;;;;;;9.30;2.00;;;;;;;17.72;39.45;102101.63;5026335;28;20132;-67
2021/03/02 11:06:38;;;;;;;7.55;1.20;;;;;;;17.92;39.38;102080.41;5026355;28;20125;-66
2021/03/02 11:09:05;;;;;;;7.63;1.55;;;;;;;17.78;38.94;102083.00;5021849;28;20042;-67
2021/03/02 11:11:32;;;;;;;6.50;1.85;;;;;;;17.88;38.89;102073.25;5023818;28;20046;-67
2021/03/02 11:13:59;;;;;;;5.72;1.58;;;;;;;17.77;38.71;102066.94;5026054;28;20041;-67
2021/03/02 11:16:26;;;;;;;6.93;1.70;;;;;;;17.62;39.22;102072.16;5024183;28;20136;-67
2021/03/02 11:18:54;;;;;;;7.35;2.72;;;;;;;17.72;39.38;102077.59;5006464;28;20509;-67
2021/03/02 11:21:21;;;;;;;4.10;1.75;;;;;;;17.96;38.53;102058.16;5026283;28;20042;-67
2021/03/02 11:23:50;;;;;;;7.38;1.80;;;;;;;18.31;38.05;102063.72;5021632;28;20509;-67
2021/03/02 11:26:17;;;;;;;5.30;2.65;;;;;;;18.38;37.98;102059.28;5026448;28;20494;-66
2021/03/02 11:28:44;;;;;;;7.43;1.58;;;;;;;18.02;39.17;102068.00;5028817;28;20445;-65
2021/03/02 11:31:12;;;;;;;7.10;1.85;;;;;;;17.87;39.74;102066.13;5026926;28;20048;-66
2021/03/02 11:33:39;;;;;;;5.82;1.60;;;;;;;18.00;39.75;102064.41;5010006;28;20030;-66
2021/03/02 11:36:06;;;;;;;7.38;1.60;;;;;;;17.71;39.97;102049.13;5027670;28;20119;-66